Time;durP1;ratioP1;P1;durP2;ratioP2;P2;SDS_P1;SDS_P2;PMS_P1;PMS_P2;Temp;Humidity;BMP_temperature;BMP_pressure;BME280_temperature;BME280_humidity;BME280_pressure;Samples;Min_cycle;Max_cycle;Signal;HPM_P1;HPM_P2
2023/05/26 00:02:36;0.00;0.00;0.62;0.00;0.00;0.62;5.00;3.60;;;26.80;22.90;;;;;;2260002;61;20372;-66
2023/05/26 00:05:43;0.00;0.00;0.62;0.00;0.00;0.62;6.00;2.83;;;26.80;23.40;;;;;;2260269;61;20431;-65
2023/05/26 00:08:31;0.00;0.00;0.62;0.00;0.00;0.62;5.33;2.33;;;26.80;22.90;;;;;;2260394;61;20407;-66
2023/05/26 00:11:16;0.00;0.00;0.62;0.00;0.00;0.62;5.27;2.60;;;26.80;22.90;;;;;;2260044;61;20412;-66
2023/05/26 00:14:01;0.00;0.00;0.62;0.00;0.00;0.62;5.00;2.73;;;26.80;22.90;;;;;;2260080;61;20401;-64
2023/05/26 00:16:45;0.00;0.00;0.62;0.00;0.00;0.62;5.27;2.83;;;26.80;22.90;;;;;;2256529;61;20381;-63
2023/05/26 00:19:31;0.00;0.00;0.62;0.00;0.00;0.62;6.80;2.60;;;26.70;22.90;;;;;;2256763;61;20370;-66
2023/05/26 00:22:18;0.00;0.00;0.62;0.00;0.00;0.62;4.10;2.50;;;26.70;22.80;;;;;;2257361;61;20381;-65
2023/05/26 00:25:04;0.00;0.00;0.62;0.00;0.00;0.62;6.27;2.80;;;26.70;22.80;;;;;;2260019;61;20944;-64
2023/05/26 00:27:49;0.00;0.00;0.62;0.00;0.00;0.62;4.13;2.40;;;26.70;22.80;;;;;;2261197;61;20408;-67
2023/05/26 00:30:34;0.00;0.00;0.62;0.00;0.00;0.62;5.63;2.80;;;26.70;22.80;;;;;;2260368;61;20790;-65
2023/05/26 00:33:19;0.00;0.00;0.62;0.00;0.00;0.62;4.70;2.60;;;26.70;22.80;;;;;;2259661;61;20432;-66
2023/05/26 00:36:04;0.00;0.00;0.62;0.00;0.00;0.62;4.10;2.40;;;26.70;22.80;;;;;;2261392;61;20385;-66
2023/05/26 00:38:50;0.00;0.00;0.62;0.00;0.00;0.62;5.43;2.90;;;26.70;22.80;;;;;;2260325;61;20403;-65
2023/05/26 00:41:35;0.00;0.00;0.62;0.00;0.00;0.62;5.67;2.87;;;26.70;22.80;;;;;;2261199;61;20389;-66
2023/05/26 00:44:20;0.00;0.00;0.62;0.00;0.00;0.62;4.70;2.63;;;26.70;22.80;;;;;;2260610;61;20353;-66
2023/05/26 00:47:05;0.00;0.00;0.62;0.00;0.00;0.62;4.30;2.60;;;26.70;22.80;;;;;;2259251;61;20376;-66
2023/05/26 00:49:52;0.00;0.00;0.62;0.00;0.00;0.62;7.50;3.53;;;26.70;22.80;;;;;;2260323;61;20369;-66
2023/05/26 00:52:37;0.00;0.00;0.62;0.00;0.00;0.62;5.47;2.57;;;26.70;22.80;;;;;;2260490;61;20389;-66
2023/05/26 00:55:23;0.00;0.00;0.62;0.00;0.00;0.62;5.03;2.93;;;26.60;22.80;;;;;;2259386;61;20901;-66
2023/05/26 00:58:09;0.00;0.00;0.62;0.00;0.00;0.62;7.67;2.80;;;26.70;22.80;;;;;;2260873;61;20426;-66
2023/05/26 01:00:54;0.00;0.00;0.62;0.00;0.00;0.62;4.43;2.23;;;26.60;22.70;;;;;;2258981;61;20424;-64
2023/05/26 01:03:38;0.00;0.00;0.62;0.00;0.00;0.62;4.90;2.50;;;26.60;22.70;;;;;;2256987;61;20366;-65
2023/05/26 01:06:24;0.00;0.00;0.62;0.00;0.00;0.62;4.87;2.73;;;26.60;22.80;;;;;;2253186;61;20505;-66
2023/05/26 01:09:08;0.00;0.00;0.62;0.00;0.00;0.62;4.97;2.73;;;26.60;22.80;;;;;;2255306;61;20377;-65
2023/05/26 01:12:01;0.00;0.00;0.62;0.00;0.00;0.62;5.80;3.13;;;26.60;22.80;;;;;;2256771;61;20517;-66
2023/05/26 01:15:00;0.00;0.00;0.62;0.00;0.00;0.62;6.73;3.13;;;26.60;22.80;;;;;;2259451;61;20468;-66
2023/05/26 01:17:56;0.00;0.00;0.62;0.00;0.00;0.62;4.73;2.53;;;26.60;22.70;;;;;;2260898;61;20776;-66
2023/05/26 01:20:45;0.00;0.00;0.62;0.00;0.00;0.62;3.30;2.10;;;26.60;22.70;;;;;;2260474;61;20452;-65
2023/05/26 01:23:58;0.00;0.00;0.62;0.00;0.00;0.62;4.97;2.57;;;26.60;22.80;;;;;;2257459;61;20931;-65
2023/05/26 01:27:11;0.00;0.00;0.62;0.00;0.00;0.62;6.70;3.20;;;26.60;22.70;;;;;;2256932;61;20387;-66
2023/05/26 01:29:58;0.00;0.00;0.62;0.00;0.00;0.62;6.13;3.03;;;26.60;22.70;;;;;;2256375;61;20365;-64
2023/05/26 01:32:47;0.00;0.00;0.62;0.00;0.00;0.62;5.00;2.00;;;26.60;22.80;;;;;;2256756;61;20474;-65
2023/05/26 01:35:32;0.00;0.00;0.62;0.00;0.00;0.62;6.40;2.80;;;26.60;22.80;;;;;;2256500;61;20389;-66
2023/05/26 01:38:18;0.00;0.00;0.62;0.00;0.00;0.62;8.70;2.43;;;26.60;22.80;;;;;;2256305;61;20386;-67
2023/05/26 01:41:16;0.00;0.00;0.62;0.00;0.00;0.62;4.60;2.97;;;26.50;22.70;;;;;;2256389;61;20413;-66
2023/05/26 01:44:08;0.00;0.00;0.62;0.00;0.00;0.62;6.03;2.70;;;26.50;23.20;;;;;;2256612;61;20444;-65
2023/05/26 01:46:54;0.00;0.00;0.62;0.00;0.00;0.62;5.70;2.33;;;26.50;22.70;;;;;;2256284;61;20452;-65
2023/05/26 01:49:43;0.00;0.00;0.62;0.00;0.00;0.62;3.83;2.03;;;26.50;22.70;;;;;;2256461;61;20882;-66
2023/05/26 01:52:28;0.00;0.00;0.62;0.00;0.00;0.62;5.30;3.00;;;26.50;22.70;;;;;;2255894;61;20386;-66
2023/05/26 01:55:15;0.00;0.00;0.62;0.00;0.00;0.62;6.77;2.90;;;26.50;22.70;;;;;;2256387;61;20455;-66
2023/05/26 01:58:03;0.00;0.00;0.62;0.00;0.00;0.62;6.67;3.13;;;26.50;22.70;;;;;;2256501;61;20389;-65
2023/05/26 02:00:52;0.00;0.00;0.62;0.00;0.00;0.62;4.23;2.17;;;26.50;22.70;;;;;;2256021;61;20373;-66
2023/05/26 02:03:39;0.00;0.00;0.62;0.00;0.00;0.62;10.77;2.53;;;26.50;22.70;;;;;;2260840;61;20361;-65
2023/05/26 02:06:23;0.00;0.00;0.62;0.00;0.00;0.62;5.27;3.07;;;26.50;22.70;;;;;;2260728;61;20897;-64
2023/05/26 02:09:08;0.00;0.00;0.62;0.00;0.00;0.62;6.70;2.60;;;26.50;22.70;;;;;;2259209;61;20940;-65
2023/05/26 02:11:53;0.00;0.00;0.62;0.00;0.00;0.62;6.27;3.33;;;26.40;22.70;;;;;;2260937;61;20372;-65
2023/05/26 02:14:37;0.00;0.00;0.62;0.00;0.00;0.62;4.40;1.70;;;26.40;22.60;;;;;;2257218;61;20361;-65
2023/05/26 02:17:23;0.00;0.00;0.62;0.00;0.00;0.62;6.47;2.50;;;26.40;22.70;;;;;;2256014;61;20374;-66
2023/05/26 02:20:10;0.00;0.00;0.62;0.00;0.00;0.62;4.20;2.63;;;26.40;22.70;;;;;;2256164;61;20413;-65
2023/05/26 02:22:55;0.00;0.00;0.62;0.00;0.00;0.62;5.13;2.57;;;26.40;22.60;;;;;;2256157;61;20415;-66
2023/05/26 02:25:40;0.00;0.00;0.62;0.00;0.00;0.62;5.70;2.27;;;26.50;22.70;;;;;;2260898;61;20410;-65
2023/05/26 02:28:24;0.00;0.00;0.62;0.00;0.00;0.62;4.50;2.30;;;26.40;22.70;;;;;;2261060;61;20892;-65
2023/05/26 02:31:09;0.00;0.00;0.62;0.00;0.00;0.62;3.67;2.40;;;26.40;22.70;;;;;;2259733;61;20360;-63
2023/05/26 02:33:54;0.00;0.00;0.62;0.00;0.00;0.62;6.03;2.47;;;26.40;22.60;;;;;;2260409;61;20393;-65
2023/05/26 02:36:41;0.00;0.00;0.62;0.00;0.00;0.62;6.40;2.60;;;26.40;22.60;;;;;;2260473;61;20381;-64
2023/05/26 02:39:26;0.00;0.00;0.62;0.00;0.00;0.62;4.97;2.53;;;26.40;22.70;;;;;;2260065;61;20368;-65
2023/05/26 02:42:11;0.00;0.00;0.62;0.00;0.00;0.62;5.40;3.00;;;26.40;22.60;;;;;;2260466;61;20784;-65
2023/05/26 02:44:55;0.00;0.00;0.62;0.00;0.00;0.62;3.77;2.30;;;26.40;22.60;;;;;;2259716;61;20396;-66
2023/05/26 02:47:40;0.00;0.00;0.62;0.00;0.00;0.62;4.30;2.57;;;26.30;22.60;;;;;;2260690;61;20461;-65
2023/05/26 02:50:25;0.00;0.00;0.62;0.00;0.00;0.62;5.80;3.03;;;26.30;22.60;;;;;;2260761;61;20708;-66
2023/05/26 02:53:11;0.00;0.00;0.62;0.00;0.00;0.62;6.20;3.33;;;26.30;23.10;;;;;;2259330;61;20392;-64
2023/05/26 02:55:56;0.00;0.00;0.62;0.00;0.00;0.62;6.00;2.50;;;26.30;22.60;;;;;;2261239;61;20487;-66
2023/05/26 02:58:41;0.00;0.00;0.62;0.00;0.00;0.62;4.77;2.47;;;26.30;22.60;;;;;;2260402;61;20457;-63
2023/05/26 03:01:27;0.00;0.00;0.62;0.00;0.00;0.62;3.90;2.10;;;26.30;22.60;;;;;;2258543;61;20373;-65
2023/05/26 03:04:12;0.00;0.00;0.62;0.00;0.00;0.62;4.30;2.30;;;26.30;22.60;;;;;;2257316;61;20361;-64
2023/05/26 03:06:57;0.00;0.00;0.62;0.00;0.00;0.62;4.33;2.50;;;26.30;22.60;;;;;;2255759;61;20988;-64
2023/05/26 03:09:48;0.00;0.00;0.62;0.00;0.00;0.62;4.13;2.73;;;26.30;22.60;;;;;;2256829;61;20436;-65
2023/05/26 03:12:33;0.00;0.00;0.62;0.00;0.00;0.62;4.60;2.40;;;26.30;22.60;;;;;;2257138;61;20378;-65
2023/05/26 03:15:18;0.00;0.00;0.62;0.00;0.00;0.62;3.90;2.10;;;26.30;22.70;;;;;;2258872;61;20474;-64
2023/05/26 03:18:03;0.00;0.00;0.62;0.00;0.00;0.62;6.30;2.90;;;26.30;22.60;;;;;;2260866;61;20369;-66
2023/05/26 03:20:48;0.00;0.00;0.62;0.00;0.00;0.62;4.90;2.53;;;26.30;22.60;;;;;;2259881;61;20368;-66
2023/05/26 03:23:33;0.00;0.00;0.62;0.00;0.00;0.62;3.30;2.20;;;26.30;22.60;;;;;;2257112;61;20377;-65
2023/05/26 03:26:22;0.00;0.00;0.62;0.00;0.00;0.62;3.90;2.27;;;26.20;22.50;;;;;;2256717;61;20933;-65
2023/05/26 03:29:07;0.00;0.00;0.62;0.00;0.00;0.62;4.57;2.50;;;26.30;23.10;;;;;;2255403;61;20910;-66
2023/05/26 03:31:51;0.00;0.00;0.62;0.00;0.00;0.62;8.83;3.50;;;26.20;22.60;;;;;;2256550;61;20393;-66
2023/05/26 03:34:39;0.00;0.00;0.62;0.00;0.00;0.62;4.87;2.90;;;26.20;22.60;;;;;;2256607;61;20438;-65
2023/05/26 03:37:23;0.00;0.00;0.62;0.00;0.00;0.62;4.83;2.60;;;26.20;22.50;;;;;;2255257;61;20369;-66
2023/05/26 03:40:09;0.00;0.00;0.62;0.00;0.00;0.62;4.60;2.60;;;26.20;22.50;;;;;;2256226;61;20437;-66
2023/05/26 03:42:56;0.00;0.00;0.62;0.00;0.00;0.62;7.47;3.23;;;26.20;22.60;;;;;;2256262;61;20362;-65
2023/05/26 03:45:40;0.00;0.00;0.62;0.00;0.00;0.62;5.03;2.70;;;26.20;22.50;;;;;;2255531;61;20440;-64
2023/05/26 03:48:25;0.00;0.00;0.62;0.00;0.00;0.62;4.90;2.60;;;26.20;22.60;;;;;;2256219;61;20400;-66
2023/05/26 03:51:12;0.00;0.00;0.62;0.00;0.00;0.62;4.07;2.30;;;26.20;22.50;;;;;;2255488;61;20365;-66
2023/05/26 03:53:56;0.00;0.00;0.62;0.00;0.00;0.62;3.63;2.30;;;26.20;22.60;;;;;;2253320;61;20397;-65
2023/05/26 03:56:41;0.00;0.00;0.62;0.00;0.00;0.62;5.03;2.87;;;26.20;22.60;;;;;;2256623;61;20386;-65
2023/05/26 03:59:27;0.00;0.00;0.62;0.00;0.00;0.62;7.23;2.50;;;26.20;22.60;;;;;;2256246;61;20397;-66
2023/05/26 04:02:12;0.00;0.00;0.62;0.00;0.00;0.62;5.37;2.80;;;26.10;22.50;;;;;;2260232;61;20372;-65
2023/05/26 04:04:57;0.00;0.00;0.62;0.00;0.00;0.62;4.33;2.50;;;26.20;22.50;;;;;;2260436;61;20435;-66
2023/05/26 04:07:42;0.00;0.00;0.62;0.00;0.00;0.62;5.40;2.30;;;26.20;22.60;;;;;;2260389;61;20368;-64
2023/05/26 04:10:27;0.00;0.00;0.62;0.00;0.00;0.62;5.17;2.70;;;26.20;22.60;;;;;;2260507;61;20365;-65
2023/05/26 04:13:11;0.00;0.00;0.62;0.00;0.00;0.62;5.20;2.33;;;26.10;22.60;;;;;;2260759;61;20389;-64
2023/05/26 04:15:58;0.00;0.00;0.62;0.00;0.00;0.62;4.77;2.97;;;26.10;22.50;;;;;;2711927;45;20504;-65
2023/05/26 04:18:42;0.00;0.00;0.62;0.00;0.00;0.62;5.47;2.53;;;26.10;22.60;;;;;;2256969;61;20374;-65
2023/05/26 04:21:27;0.00;0.00;0.62;0.00;0.00;0.62;5.10;2.63;;;26.10;22.60;;;;;;2255813;61;20829;-64
2023/05/26 04:24:12;0.00;0.00;0.62;0.00;0.00;0.62;4.53;2.30;;;26.10;22.60;;;;;;2256989;61;20432;-65
2023/05/26 04:26:57;0.00;0.00;0.62;0.00;0.00;0.62;6.47;3.03;;;26.10;22.60;;;;;;2256655;61;20914;-67
2023/05/26 04:30:12;0.00;0.00;0.62;0.00;0.00;0.62;7.70;3.40;;;26.10;22.60;;;;;;2247020;61;20803;-65
2023/05/26 04:33:08;0.00;0.00;0.62;0.00;0.00;0.62;4.80;2.33;;;26.10;22.60;;;;;;2248963;61;20396;-66
2023/05/26 04:36:01;0.00;0.00;0.62;0.00;0.00;0.62;4.83;2.67;;;26.10;22.60;;;;;;2255756;61;20418;-65
2023/05/26 04:38:47;0.00;0.00;0.62;0.00;0.00;0.62;4.90;2.57;;;26.10;22.60;;;;;;2256587;61;20836;-66
2023/05/26 04:41:35;0.00;0.00;0.62;0.00;0.00;0.62;5.53;3.60;;;26.10;22.60;;;;;;2256906;61;20448;-66
2023/05/26 04:44:22;0.00;0.00;0.62;0.00;0.00;0.62;6.30;2.50;;;26.00;22.60;;;;;;2255818;61;20370;-64
2023/05/26 04:47:08;0.00;0.00;0.62;0.00;0.00;0.62;5.87;2.60;;;26.10;22.70;;;;;;2256771;61;20412;-64
2023/05/26 04:49:55;0.00;0.00;0.62;0.00;0.00;0.62;4.93;2.40;;;26.00;22.60;;;;;;2256566;61;20374;-67
2023/05/26 04:52:41;0.00;0.00;0.62;0.00;0.00;0.62;4.80;3.03;;;26.00;22.60;;;;;;2255859;61;20382;-66
2023/05/26 04:55:26;0.00;0.00;0.62;0.00;0.00;0.62;5.00;2.63;;;26.00;22.60;;;;;;2257203;61;20390;-66
2023/05/26 04:58:11;0.00;0.00;0.62;0.00;0.00;0.62;8.97;3.27;;;26.00;22.60;;;;;;2255862;61;20382;-64
2023/05/26 05:01:02;0.00;0.00;0.62;0.00;0.00;0.62;4.60;3.03;;;26.00;22.60;;;;;;2257152;61;20921;-66
2023/05/26 05:04:13;0.00;0.00;0.62;0.00;0.00;0.62;5.87;3.13;;;26.00;22.60;;;;;;2258674;61;20372;-65
2023/05/26 05:07:10;0.00;0.00;0.62;0.00;0.00;0.62;5.67;3.60;;;26.00;22.60;;;;;;2259607;61;20365;-65
2023/05/26 05:09:55;0.00;0.00;0.62;0.00;0.00;0.62;6.27;3.30;;;26.00;22.60;;;;;;2260678;61;20369;-65
2023/05/26 05:12:40;0.00;0.00;0.62;0.00;0.00;0.62;6.50;3.23;;;26.00;22.60;;;;;;2260379;61;20416;-65
2023/05/26 05:15:27;0.00;0.00;0.62;0.00;0.00;0.62;5.20;3.20;;;26.00;22.60;;;;;;2257152;61;20495;-65
2023/05/26 05:18:12;0.00;0.00;0.62;0.00;0.00;0.62;4.97;2.90;;;26.00;22.60;;;;;;2256874;61;20393;-65
2023/05/26 05:20:58;0.00;0.00;0.62;0.00;0.00;0.62;6.03;3.10;;;26.00;22.60;;;;;;2255539;61;20420;-64
2023/05/26 05:23:44;0.00;0.00;0.62;0.00;0.00;0.62;5.43;3.40;;;26.00;22.60;;;;;;2259813;61;20369;-65
2023/05/26 05:26:29;0.00;0.00;0.62;0.00;0.00;0.62;5.20;3.13;;;26.00;22.60;;;;;;2259948;61;20454;-66
2023/05/26 05:29:15;0.00;0.00;0.62;0.00;0.00;0.62;5.57;3.07;;;26.00;22.60;;;;;;2259893;61;20360;-66
2023/05/26 05:32:06;0.00;0.00;0.62;0.00;0.00;0.62;5.47;3.40;;;26.00;22.60;;;;;;2260815;61;20365;-66
2023/05/26 05:34:59;0.00;0.00;0.62;0.00;0.00;0.62;4.60;2.83;;;26.00;22.60;;;;;;2259890;61;20783;-63
2023/05/26 05:37:44;0.00;0.00;0.62;0.00;0.00;0.62;5.70;3.30;;;26.00;22.60;;;;;;2261011;61;20790;-65
2023/05/26 05:40:31;0.00;0.00;0.62;0.00;0.00;0.62;4.50;2.90;;;26.00;22.60;;;;;;2260233;61;20384;-65
2023/05/26 05:43:16;0.00;0.00;0.62;0.00;0.00;0.62;4.53;3.00;;;26.00;22.60;;;;;;2259622;61;20353;-66
2023/05/26 05:46:02;0.00;0.00;0.62;0.00;0.00;0.62;5.63;3.07;;;26.00;22.60;;;;;;2259825;61;20473;-66
2023/05/26 05:49:07;0.00;0.00;0.62;0.00;0.00;0.62;7.00;3.47;;;26.00;22.60;;;;;;2259267;61;20450;-64
2023/05/26 05:51:56;0.00;0.00;0.62;0.00;0.00;0.62;5.00;3.20;;;26.00;22.60;;;;;;2259577;61;20388;-65
2023/05/26 05:54:42;0.00;0.00;0.62;0.00;0.00;0.62;4.27;2.90;;;26.00;22.60;;;;;;2260174;61;20942;-66
2023/05/26 05:57:29;0.00;0.00;0.62;0.00;0.00;0.62;5.50;3.13;;;26.00;22.60;;;;;;2259603;61;20843;-65
2023/05/26 06:00:15;0.00;0.00;0.62;0.00;0.00;0.62;6.23;2.93;;;26.00;22.60;;;;;;2260460;61;20369;-65
2023/05/26 06:02:59;0.00;0.00;0.62;0.00;0.00;0.62;7.20;3.30;;;26.00;22.50;;;;;;2492698;53;20353;-65
2023/05/26 06:05:44;0.00;0.00;0.62;0.00;0.00;0.62;5.80;3.00;;;26.00;22.50;;;;;;2255946;61;20454;-65
2023/05/26 06:08:29;0.00;0.00;0.62;0.00;0.00;0.62;5.33;2.93;;;26.00;22.50;;;;;;2256643;61;20366;-66
2023/05/26 06:11:14;0.00;0.00;0.62;0.00;0.00;0.62;5.73;2.73;;;26.00;22.50;;;;;;2255878;61;20440;-65
2023/05/26 06:14:03;0.00;0.00;0.62;0.00;0.00;0.62;8.73;3.60;;;26.00;22.50;;;;;;2257347;61;20442;-64
2023/05/26 06:16:48;0.00;0.00;0.62;0.00;0.00;0.62;9.60;3.27;;;26.00;22.50;;;;;;2261347;61;20516;-64
2023/05/26 06:19:32;0.00;0.00;0.62;0.00;0.00;0.62;6.40;2.93;;;26.00;22.50;;;;;;2259551;61;20357;-65
2023/05/26 06:22:17;0.00;0.00;0.62;0.00;0.00;0.62;4.80;3.47;;;26.00;22.50;;;;;;2260325;61;20448;-65
2023/05/26 06:25:03;0.00;0.00;0.62;0.00;0.00;0.62;6.27;3.57;;;26.00;22.50;;;;;;2256158;61;20381;-65
2023/05/26 06:27:48;0.00;0.00;0.62;0.00;0.00;0.62;7.37;3.53;;;26.00;22.40;;;;;;2255634;61;20425;-68
2023/05/26 06:30:35;0.00;0.00;0.62;0.00;0.00;0.62;5.60;3.10;;;26.00;22.50;;;;;;2256113;61;20357;-65
2023/05/26 06:33:35;0.00;0.00;0.62;0.00;0.00;0.62;5.17;3.53;;;26.00;22.40;;;;;;2255922;61;20386;-64
2023/05/26 06:36:20;0.00;0.00;0.62;0.00;0.00;0.62;6.40;2.90;;;26.00;22.40;;;;;;2255935;61;20445;-66
2023/05/26 06:39:05;0.00;0.00;0.62;0.00;0.00;0.62;7.83;3.10;;;26.00;22.40;;;;;;2256105;61;20405;-66
2023/05/26 06:41:51;0.00;0.00;0.62;0.00;0.00;0.62;6.97;2.93;;;26.00;22.40;;;;;;2255187;61;20401;-62
2023/05/26 06:44:36;0.00;0.00;0.62;0.00;0.00;0.62;6.00;2.87;;;26.00;22.40;;;;;;2255973;61;20444;-59
2023/05/26 06:47:23;0.00;0.00;0.62;0.00;0.00;0.62;5.30;3.03;;;26.00;22.40;;;;;;2256468;61;20835;-59
2023/05/26 06:50:09;0.00;0.00;0.62;0.00;0.00;0.62;4.50;2.47;;;26.00;22.40;;;;;;2254831;61;20385;-63
2023/05/26 06:52:56;0.00;0.00;0.62;0.00;0.00;0.62;8.33;3.83;;;26.00;22.30;;;;;;2256024;61;20440;-59
2023/05/26 06:55:41;0.00;0.00;0.62;0.00;0.00;0.62;4.70;2.67;;;26.00;22.30;;;;;;2255419;61;20389;-61
2023/05/26 06:58:28;0.00;0.00;0.62;0.00;0.00;0.62;7.10;3.37;;;26.00;22.30;;;;;;2255355;61;20373;-62
2023/05/26 07:01:12;0.00;0.00;0.62;0.00;0.00;0.62;6.40;3.40;;;26.00;22.30;;;;;;2257358;61;20463;-59
2023/05/26 07:04:00;0.00;0.00;0.62;0.00;0.00;0.62;6.30;3.67;;;26.00;22.30;;;;;;2258695;61;20399;-59
2023/05/26 07:06:45;0.00;0.00;0.62;0.00;0.00;0.62;6.30;2.90;;;26.00;22.30;;;;;;2266971;40;20455;-59
2023/05/26 07:09:30;0.00;0.00;0.62;0.00;0.00;0.62;6.50;3.43;;;26.00;22.30;;;;;;2253011;61;20929;-61
2023/05/26 07:12:19;0.00;0.00;0.62;0.00;0.00;0.62;6.70;2.80;;;26.00;22.20;;;;;;2252310;61;20890;-61
2023/05/26 07:15:08;0.00;0.00;0.62;0.00;0.00;0.62;6.67;3.53;;;26.00;22.20;;;;;;2255426;61;20417;-63
2023/05/26 07:17:53;0.00;0.00;0.62;0.00;0.00;0.62;5.50;2.90;;;26.00;22.20;;;;;;2252832;61;20902;-59
2023/05/26 07:20:39;0.00;0.00;0.62;0.00;0.00;0.62;6.07;3.10;;;26.00;22.20;;;;;;2252417;61;20941;-57
2023/05/26 07:23:24;0.00;0.00;0.62;0.00;0.00;0.62;7.30;2.97;;;26.00;22.20;;;;;;2250867;61;20367;-59
2023/05/26 07:26:10;0.00;0.00;0.62;0.00;0.00;0.62;4.60;2.73;;;26.00;22.20;;;;;;2248115;61;20395;-58
2023/05/26 07:28:55;0.00;0.00;0.62;0.00;0.00;0.62;5.50;3.00;;;26.00;22.10;;;;;;2249079;61;20413;-57
2023/05/26 07:31:41;0.00;0.00;0.62;0.00;0.00;0.62;5.63;2.60;;;26.00;22.20;;;;;;2253087;61;20354;-57
2023/05/26 07:34:26;0.00;0.00;0.62;0.00;0.00;0.62;5.77;2.93;;;26.00;22.10;;;;;;2248680;61;20390;-61
2023/05/26 07:37:12;0.00;0.00;0.62;0.00;0.00;0.62;4.53;3.00;;;26.00;22.10;;;;;;2253194;61;20397;-58
2023/05/26 07:39:57;0.00;0.00;0.62;0.00;0.00;0.62;6.10;2.77;;;26.00;22.10;;;;;;2251910;61;20386;-62
2023/05/26 07:42:42;0.00;0.00;0.62;0.00;0.00;0.62;6.03;2.80;;;26.00;22.70;;;;;;2252386;61;20442;-60
2023/05/26 07:45:27;0.00;0.00;0.62;0.00;0.00;0.62;7.23;3.30;;;26.00;22.10;;;;;;2249582;61;20386;-57
2023/05/26 07:48:14;0.00;0.00;0.62;0.00;0.00;0.62;5.80;2.93;;;26.00;22.10;;;;;;2252248;61;20362;-64
2023/05/26 07:50:58;0.00;0.00;0.62;0.00;0.00;0.62;5.30;2.70;;;26.00;22.00;;;;;;2252792;61;20378;-58
2023/05/26 07:53:44;0.00;0.00;0.62;0.00;0.00;0.62;5.97;2.70;;;26.00;22.00;;;;;;2252982;61;20430;-61
2023/05/26 07:56:29;0.00;0.00;0.62;0.00;0.00;0.62;6.37;2.83;;;26.00;22.00;;;;;;2251843;61;20477;-60
2023/05/26 07:59:15;0.00;0.00;0.62;0.00;0.00;0.62;4.43;2.70;;;26.00;22.00;;;;;;2252716;61;20398;-66
2023/05/26 08:02:00;0.00;0.00;0.62;0.00;0.00;0.62;6.00;3.40;;;26.00;22.00;;;;;;2256067;61;20798;-66
2023/05/26 08:04:45;0.00;0.00;0.62;0.00;0.00;0.62;4.77;2.67;;;26.00;22.00;;;;;;2256871;61;20795;-65
2023/05/26 08:07:29;0.00;0.00;0.62;0.00;0.00;0.62;5.90;3.20;;;26.00;22.00;;;;;;2257692;61;20827;-67
2023/05/26 08:10:16;0.00;0.00;0.62;0.00;0.00;0.62;6.70;2.93;;;26.00;22.00;;;;;;2256659;61;20388;-66
2023/05/26 08:13:01;0.00;0.00;0.62;0.00;0.00;0.62;6.93;3.20;;;26.00;22.10;;;;;;2254354;61;21001;-65
2023/05/26 08:15:45;0.00;0.00;0.62;0.00;0.00;0.62;3.57;2.60;;;26.00;22.10;;;;;;2483794;53;20419;-65
2023/05/26 08:18:30;0.00;0.00;0.62;0.00;0.00;0.62;6.53;2.67;;;26.00;22.10;;;;;;2248704;61;20382;-66
2023/05/26 08:21:15;0.00;0.00;0.62;0.00;0.00;0.62;5.03;2.50;;;26.00;22.00;;;;;;2249076;61;20592;-67
2023/05/26 08:24:00;0.00;0.00;0.62;0.00;0.00;0.62;6.30;2.87;;;26.00;22.00;;;;;;2255703;61;20982;-64
2023/05/26 08:26:46;0.00;0.00;0.62;0.00;0.00;0.62;8.60;3.77;;;26.00;22.00;;;;;;2256804;61;20825;-63
2023/05/26 08:29:31;0.00;0.00;0.62;0.00;0.00;0.62;6.77;3.17;;;26.00;22.00;;;;;;2257316;61;20374;-66
2023/05/26 08:32:16;0.00;0.00;0.62;0.00;0.00;0.62;7.67;3.40;;;26.00;22.00;;;;;;2256830;61;20412;-65
2023/05/26 08:35:02;0.00;0.00;0.62;0.00;0.00;0.62;6.67;3.43;;;26.00;22.00;;;;;;2257316;61;20918;-66
2023/05/26 08:37:47;0.00;0.00;0.62;0.00;0.00;0.62;7.27;3.07;;;26.00;22.00;;;;;;2257422;61;20377;-66
2023/05/26 08:40:33;0.00;0.00;0.62;0.00;0.00;0.62;6.33;3.00;;;26.00;22.00;;;;;;2255730;61;20934;-67
2023/05/26 08:43:26;0.00;0.00;0.62;0.00;0.00;0.62;6.70;3.23;;;26.00;22.00;;;;;;2257218;61;21006;-66
2023/05/26 08:46:12;0.00;0.00;0.62;0.00;0.00;0.62;5.70;3.53;;;26.00;22.00;;;;;;2257167;61;20436;-63
2023/05/26 08:48:57;0.00;0.00;0.62;0.00;0.00;0.62;6.27;2.70;;;26.00;22.00;;;;;;2256361;61;20773;-64
2023/05/26 08:51:47;0.00;0.00;0.62;0.00;0.00;0.62;6.90;3.63;;;26.00;22.10;;;;;;2257604;61;20875;-65
2023/05/26 08:54:32;0.00;0.00;0.62;0.00;0.00;0.62;6.17;3.20;;;26.00;22.10;;;;;;2256826;61;20377;-64
2023/05/26 08:57:19;0.00;0.00;0.62;0.00;0.00;0.62;5.33;2.83;;;26.00;22.10;;;;;;2257234;61;20358;-65
2023/05/26 09:00:08;0.00;0.00;0.62;0.00;0.00;0.62;4.73;2.60;;;26.00;22.10;;;;;;2256676;61;20370;-65
2023/05/26 09:02:53;0.00;0.00;0.62;0.00;0.00;0.62;5.00;2.73;;;26.00;22.10;;;;;;2508279;53;20444;-65
2023/05/26 09:05:37;0.00;0.00;0.62;0.00;0.00;0.62;5.83;3.03;;;26.00;22.10;;;;;;2248844;61;20392;-65
2023/05/26 09:08:24;0.00;0.00;0.62;0.00;0.00;0.62;5.20;2.60;;;26.00;22.20;;;;;;2249006;61;20439;-66
2023/05/26 09:11:25;0.00;0.00;0.62;0.00;0.00;0.62;5.77;3.00;;;26.00;22.20;;;;;;2248267;61;20394;-64
2023/05/26 09:14:13;0.00;0.00;0.62;0.00;0.00;0.62;5.60;2.90;;;26.00;22.20;;;;;;2252271;61;20389;-65
2023/05/26 09:17:01;0.00;0.00;0.62;0.00;0.00;0.62;4.97;2.80;;;26.00;22.20;;;;;;2256222;61;20420;-63
2023/05/26 09:19:46;0.00;0.00;0.62;0.00;0.00;0.62;4.10;2.43;;;26.00;22.20;;;;;;2256513;61;20428;-64
2023/05/26 09:22:33;0.00;0.00;0.62;0.00;0.00;0.62;4.57;1.70;;;26.00;22.20;;;;;;2255945;61;20418;-59
2023/05/26 09:25:18;0.00;0.00;0.62;0.00;0.00;0.62;6.13;2.30;;;26.00;22.20;;;;;;2251516;61;20522;-57
2023/05/26 09:28:06;0.00;0.00;0.62;0.00;0.00;0.62;6.37;3.10;;;26.00;22.20;;;;;;2252553;61;20367;-61
2023/05/26 09:30:50;0.00;0.00;0.62;0.00;0.00;0.62;5.00;2.80;;;26.00;22.20;;;;;;2251989;61;20422;-63
2023/05/26 09:33:45;0.00;0.00;0.62;0.00;0.00;0.62;6.00;2.50;;;26.00;22.70;;;;;;2251710;61;20514;-60
2023/05/26 09:36:32;0.00;0.00;0.62;0.00;0.00;0.62;4.00;2.47;;;26.00;22.10;;;;;;2252521;61;20391;-59
2023/05/26 09:39:17;0.00;0.00;0.62;0.00;0.00;0.62;5.00;2.47;;;26.00;22.10;;;;;;2250969;61;20369;-62
2023/05/26 09:42:06;0.00;0.00;0.62;0.00;0.00;0.62;8.37;3.60;;;26.00;22.10;;;;;;2252737;61;20450;-62
2023/05/26 09:44:51;0.00;0.00;0.62;0.00;0.00;0.62;5.17;2.93;;;26.00;22.00;;;;;;2252480;61;20768;-62
2023/05/26 09:47:37;0.00;0.00;0.62;0.00;0.00;0.62;5.67;2.80;;;26.00;22.00;;;;;;2251431;61;20951;-59
2023/05/26 09:50:24;0.00;0.00;0.62;0.00;0.00;0.62;4.63;2.70;;;26.00;22.10;;;;;;2252151;61;20742;-59
2023/05/26 09:53:10;0.00;0.00;0.62;0.00;0.00;0.62;5.60;2.60;;;26.00;22.10;;;;;;2251690;61;20386;-60
2023/05/26 09:55:59;0.00;0.00;0.62;0.00;0.00;0.62;5.03;2.10;;;26.00;22.10;;;;;;2251776;61;20383;-60
2023/05/26 09:58:47;0.00;0.00;0.62;0.00;0.00;0.62;4.93;3.10;;;26.00;22.10;;;;;;2249408;61;20378;-57
2023/05/26 10:01:36;0.00;0.00;0.62;0.00;0.00;0.62;5.00;2.80;;;26.00;22.10;;;;;;2253462;61;20365;-56
2023/05/26 10:04:21;0.00;0.00;0.62;0.00;0.00;0.62;7.37;2.77;;;26.00;22.10;;;;;;2256455;61;20885;-62
2023/05/26 10:07:08;0.00;0.00;0.62;0.00;0.00;0.62;4.93;1.83;;;26.00;22.10;;;;;;2253145;61;20910;-59
2023/05/26 10:09:56;0.00;0.00;0.62;0.00;0.00;0.62;4.07;2.40;;;26.00;22.10;;;;;;2252160;61;20370;-64
2023/05/26 10:12:42;0.00;0.00;0.62;0.00;0.00;0.62;4.67;2.30;;;26.00;22.00;;;;;;2256537;61;20361;-59
2023/05/26 10:15:28;0.00;0.00;0.62;0.00;0.00;0.62;3.40;1.90;;;26.00;22.00;;;;;;2252035;61;20394;-60
2023/05/26 10:18:13;0.00;0.00;0.62;0.00;0.00;0.62;3.43;2.00;;;26.00;22.10;;;;;;2251753;61;20363;-63
2023/05/26 10:21:03;0.00;0.00;0.62;0.00;0.00;0.62;6.90;2.57;;;26.00;22.00;;;;;;2252278;61;20358;-57
2023/05/26 10:24:00;0.00;0.00;0.62;0.00;0.00;0.62;7.10;2.90;;;26.00;22.00;;;;;;2253866;61;20417;-64
2023/05/26 10:26:54;0.00;0.00;0.62;0.00;0.00;0.62;3.93;2.70;;;26.00;22.00;;;;;;2256446;61;20436;-62
2023/05/26 10:29:46;0.00;0.00;0.62;0.00;0.00;0.62;4.97;2.40;;;26.00;22.00;;;;;;2255925;61;20393;-62
2023/05/26 10:32:52;0.00;0.00;0.62;0.00;0.00;0.62;2.77;2.00;;;26.10;22.10;;;;;;2255624;61;20878;-60
2023/05/26 10:35:51;0.00;0.00;0.62;0.00;0.00;0.62;4.40;2.30;;;26.10;22.00;;;;;;2256269;61;20400;-62
2023/05/26 10:38:42;0.00;0.00;0.62;0.00;0.00;0.62;3.70;2.20;;;26.00;22.00;;;;;;2255224;61;20358;-62
2023/05/26 10:41:35;0.00;0.00;0.62;0.00;0.00;0.62;4.50;2.53;;;26.00;22.00;;;;;;2256592;61;20425;-61
2023/05/26 10:44:41;0.00;0.00;0.62;0.00;0.00;0.62;4.60;2.33;;;26.10;22.00;;;;;;2256220;61;20370;-63
2023/05/26 10:47:30;0.00;0.00;0.62;0.00;0.00;0.62;5.00;2.37;;;26.10;22.00;;;;;;2255536;61;20413;-58
2023/05/26 10:50:15;0.00;0.00;0.62;0.00;0.00;0.62;5.10;3.20;;;26.10;22.00;;;;;;2256095;61;20412;-61
2023/05/26 10:53:00;0.00;0.00;0.62;0.00;0.00;0.62;3.07;2.00;;;26.10;22.00;;;;;;2255963;61;20377;-60
2023/05/26 10:55:54;0.00;0.00;0.62;0.00;0.00;0.62;3.33;1.77;;;26.10;22.50;;;;;;2256269;61;20388;-63
2023/05/26 10:58:47;0.00;0.00;0.62;0.00;0.00;0.62;4.00;2.13;;;26.10;22.00;;;;;;2256195;61;20442;-60
2023/05/26 11:01:33;0.00;0.00;0.62;0.00;0.00;0.62;3.40;2.43;;;26.10;21.90;;;;;;2250119;61;20517;-58